Time;durP1;ratioP1;P1;durP2;ratioP2;P2;SDS_P1;SDS_P2;PMS_P1;PMS_P2;Temp;Humidity;BMP_temperature;BMP_pressure;BME280_temperature;BME280_humidity;BME280_pressure;Samples;Min_cycle;Max_cycle;Signal;HPM_P1;HPM_P2
2023/09/04 00:00:35;;;;;;;5.60;2.40;;;;;;;;;;4985042;28;20205;-92
2023/09/04 00:03:41;;;;;;;5.93;2.88;;;;;;;;;;4986231;28;20650;-93
2023/09/04 00:06:47;;;;;;;6.38;2.60;;;;;;;;;;4996540;28;20190;-93
2023/09/04 00:09:53;;;;;;;10.70;3.47;;;;;;;;;;4996949;28;20185;-92
2023/09/04 00:12:58;;;;;;;7.53;3.42;;;;;;;;;;4986350;28;20665;-93
2023/09/04 00:16:03;;;;;;;7.05;3.15;;;;;;;;;;4985794;28;20190;-93
2023/09/04 00:19:08;;;;;;;8.55;3.47;;;;;;;;;;4985475;28;20938;-92
2023/09/04 00:22:15;;;;;;;5.65;3.30;;;;;;;;;;4983720;28;20173;-92
2023/09/04 00:25:20;;;;;;;6.75;3.30;;;;;;;;;;4984906;28;20259;-91
2023/09/04 00:28:25;;;;;;;7.72;3.60;;;;;;;;;;4985983;28;20200;-91
2023/09/04 00:31:31;;;;;;;8.70;4.40;;;;;;;;;;4965966;28;20299;-92
2023/09/04 00:34:35;;;;;;;10.63;4.10;;;;;;;;;;4966220;28;20214;-94
2023/09/04 00:37:43;;;;;;;6.68;4.15;;;;;;;;;;4967032;28;20246;-92
2023/09/04 00:40:48;;;;;;;6.57;3.85;;;;;;;;;;4967353;28;20292;-91
2023/09/04 00:43:54;;;;;;;8.07;4.15;;;;;;;;;;4968731;28;20557;-92
2023/09/04 00:46:59;;;;;;;9.70;4.13;;;;;;;;;;4973451;28;20202;-92
2023/09/04 00:50:04;;;;;;;8.85;4.00;;;;;;;;;;4985580;28;20181;-94
2023/09/04 00:53:11;;;;;;;9.25;4.30;;;;;;;;;;4986432;28;20205;-92
2023/09/04 00:56:16;;;;;;;6.50;3.95;;;;;;;;;;4986006;28;20197;-94
2023/09/04 00:59:21;;;;;;;6.05;3.80;;;;;;;;;;4986231;28;20177;-91
2023/09/04 01:02:27;;;;;;;7.18;4.35;;;;;;;;;;4986849;28;20673;-94
2023/09/04 01:05:32;;;;;;;7.35;4.15;;;;;;;;;;4988626;28;20194;-92
2023/09/04 01:08:39;;;;;;;7.30;4.00;;;;;;;;;;4986479;28;20189;-92
2023/09/04 01:11:49;;;;;;;5.72;3.42;;;;;;;;;;4986054;28;20181;-93
2023/09/04 01:14:56;;;;;;;6.75;3.85;;;;;;;;;;4986682;28;20202;-93
2023/09/04 01:18:03;;;;;;;8.43;3.63;;;;;;;;;;4981008;28;20276;-93
2023/09/04 01:21:10;;;;;;;8.30;4.05;;;;;;;;;;4986422;28;20301;-91
2023/09/04 01:24:16;;;;;;;7.95;4.57;;;;;;;;;;4987764;28;20249;-92
2023/09/04 01:27:25;;;;;;;7.72;4.03;;;;;;;;;;4986554;28;20209;-91
2023/09/04 01:30:33;;;;;;;7.28;3.60;;;;;;;;;;4985890;28;20189;-91
2023/09/04 01:33:41;;;;;;;5.88;3.92;;;;;;;;;;4985786;28;20193;-91
2023/09/04 01:36:49;;;;;;;6.53;3.72;;;;;;;;;;4966299;28;20213;-93
2023/09/04 01:39:54;;;;;;;6.45;4.03;;;;;;;;;;4966538;28;20190;-92
2023/09/04 01:42:59;;;;;;;6.00;4.13;;;;;;;;;;4965849;28;20187;-93
2023/09/04 01:46:05;;;;;;;7.90;4.22;;;;;;;;;;4976317;28;20206;-92
2023/09/04 01:49:11;;;;;;;10.00;4.50;;;;;;;;;;4981616;28;20206;-93
2023/09/04 01:52:17;;;;;;;8.68;5.45;;;;;;;;;;4996397;28;20169;-92
2023/09/04 01:55:23;;;;;;;9.20;5.10;;;;;;;;;;4997251;28;20314;-91
2023/09/04 01:58:28;;;;;;;7.95;4.40;;;;;;;;;;4998153;28;20357;-93
2023/09/04 02:01:33;;;;;;;6.80;4.47;;;;;;;;;;4999306;28;20234;-94
2023/09/04 02:04:38;;;;;;;8.65;4.38;;;;;;;;;;4998975;28;20234;-92
2023/09/04 02:07:45;;;;;;;9.02;4.60;;;;;;;;;;4998885;28;20255;-92
2023/09/04 02:10:50;;;;;;;7.63;5.00;;;;;;;;;;4999931;28;20186;-94
2023/09/04 02:13:55;;;;;;;9.18;4.88;;;;;;;;;;5000405;28;20629;-94
2023/09/04 02:17:00;;;;;;;7.95;4.95;;;;;;;;;;4999077;28;20217;-93
2023/09/04 02:20:06;;;;;;;13.30;5.10;;;;;;;;;;4996941;28;20661;-91
2023/09/04 02:23:13;;;;;;;8.18;5.22;;;;;;;;;;4998961;28;20174;-93
2023/09/04 02:26:18;;;;;;;22.58;13.50;;;;;;;;;;4998312;28;20233;-92
2023/09/04 02:29:24;;;;;;;6.15;4.25;;;;;;;;;;4998813;28;20206;-93
2023/09/04 02:32:29;;;;;;;8.88;5.07;;;;;;;;;;4987669;28;20189;-91
2023/09/04 02:35:34;;;;;;;17.67;7.85;;;;;;;;;;4987096;28;20233;-92
2023/09/04 02:38:41;;;;;;;15.90;6.03;;;;;;;;;;4989157;28;20225;-94
2023/09/04 02:41:46;;;;;;;9.15;4.25;;;;;;;;;;4989029;28;20206;-91
2023/09/04 02:44:52;;;;;;;8.23;4.72;;;;;;;;;;4988658;28;20259;-92
2023/09/04 02:47:57;;;;;;;8.75;4.95;;;;;;;;;;4968019;28;20721;-92
2023/09/04 02:51:02;;;;;;;8.43;4.50;;;;;;;;;;4998902;28;20222;-92
2023/09/04 02:54:10;;;;;;;9.52;4.70;;;;;;;;;;4988828;28;20197;-92
2023/09/04 02:57:15;;;;;;;7.63;4.75;;;;;;;;;;4989228;28;20212;-90
2023/09/04 03:00:20;;;;;;;9.30;4.80;;;;;;;;;;4989104;28;20190;-92
2023/09/04 03:03:25;;;;;;;7.88;5.40;;;;;;;;;;4988176;28;20208;-93
2023/09/04 03:06:32;;;;;;;9.45;5.95;;;;;;;;;;4988350;28;20194;-92
2023/09/04 03:09:39;;;;;;;9.75;6.45;;;;;;;;;;4988982;28;20259;-92
2023/09/04 03:12:44;;;;;;;15.57;6.90;;;;;;;;;;4987407;28;20645;-92
2023/09/04 03:15:52;;;;;;;9.57;5.70;;;;;;;;;;4987381;28;20181;-94
2023/09/04 03:18:57;;;;;;;12.20;6.15;;;;;;;;;;4986671;28;20229;-95
2023/09/04 03:22:02;;;;;;;13.57;6.03;;;;;;;;;;4986681;28;20190;-92
2023/09/04 03:25:09;;;;;;;21.13;6.53;;;;;;;;;;4986663;28;20210;-91
2023/09/04 03:28:14;;;;;;;12.43;6.50;;;;;;;;;;4985434;28;20205;-92
2023/09/04 03:31:19;;;;;;;7.75;4.22;;;;;;;;;;4986865;28;20194;-93
2023/09/04 03:34:25;;;;;;;11.90;4.25;;;;;;;;;;4986545;28;20230;-93
2023/09/04 03:37:30;;;;;;;6.03;4.25;;;;;;;;;;4986641;28;20190;-91
2023/09/04 03:40:38;;;;;;;5.03;3.67;;;;;;;;;;4985495;28;20190;-93
2023/09/04 03:43:44;;;;;;;5.88;3.63;;;;;;;;;;4986620;28;20185;-94
2023/09/04 03:46:50;;;;;;;8.10;4.10;;;;;;;;;;4987213;28;20185;-92
2023/09/04 03:49:54;;;;;;;7.07;4.10;;;;;;;;;;4986122;28;20241;-92
2023/09/04 03:53:00;;;;;;;8.13;5.20;;;;;;;;;;4985361;28;20185;-90
2023/09/04 03:56:07;;;;;;;15.00;6.72;;;;;;;;;;4985910;28;20225;-93
2023/09/04 03:59:12;;;;;;;12.77;6.18;;;;;;;;;;4987045;28;20242;-90
2023/09/04 04:02:17;;;;;;;10.60;6.63;;;;;;;;;;4966877;28;20206;-90
2023/09/04 04:05:22;;;;;;;8.95;5.55;;;;;;;;;;4977249;28;20243;-91
2023/09/04 04:08:28;;;;;;;9.27;4.97;;;;;;;;;;4966895;28;20198;-94
2023/09/04 04:11:34;;;;;;;7.03;4.57;;;;;;;;;;4987519;28;20200;-93
2023/09/04 04:14:39;;;;;;;8.20;4.50;;;;;;;;;;4986666;28;20201;-90
2023/09/04 04:17:45;;;;;;;6.63;4.90;;;;;;;;;;4986867;28;20186;-94
2023/09/04 04:20:50;;;;;;;8.23;5.10;;;;;;;;;;4987801;28;20234;-94
2023/09/04 04:23:57;;;;;;;7.88;5.35;;;;;;;;;;4986734;28;20251;-93
2023/09/04 04:27:04;;;;;;;7.55;5.13;;;;;;;;;;4988712;28;20194;-92
2023/09/04 04:30:09;;;;;;;11.93;5.13;;;;;;;;;;4989040;28;20204;-92
2023/09/04 04:33:15;;;;;;;7.82;4.60;;;;;;;;;;4988897;28;20564;-92
2023/09/04 04:36:21;;;;;;;7.28;4.30;;;;;;;;;;4968014;28;20198;-90
2023/09/04 04:39:26;;;;;;;7.10;4.50;;;;;;;;;;4970293;28;20206;-90
2023/09/04 04:45:55;;;;;;;9.70;4.60;;;;;;;;;;4968359;28;20251;-90
2023/09/04 04:49:00;;;;;;;8.82;4.78;;;;;;;;;;4969321;28;20195;-92
2023/09/04 04:52:06;;;;;;;8.48;5.38;;;;;;;;;;4969275;28;20195;-93
2023/09/04 04:55:12;;;;;;;11.38;5.70;;;;;;;;;;4992338;28;20209;-93
2023/09/04 04:58:21;;;;;;;12.57;6.53;;;;;;;;;;4986844;28;20229;-92
2023/09/04 05:01:26;;;;;;;10.45;6.20;;;;;;;;;;5011214;28;20612;-91
2023/09/04 05:04:36;;;;;;;9.45;5.70;;;;;;;;;;5010596;28;20198;-92
2023/09/04 05:07:42;;;;;;;11.95;6.18;;;;;;;;;;4986248;28;20217;-91
2023/09/04 05:10:59;;;;;;;8.88;5.60;;;;;;;;;;5009204;28;20210;-91
2023/09/04 05:14:06;;;;;;;9.30;5.90;;;;;;;;;;5008030;28;20210;-92
2023/09/04 05:17:11;;;;;;;8.32;5.55;;;;;;;;;;5009454;28;20332;-91
2023/09/04 05:20:16;;;;;;;9.80;6.20;;;;;;;;;;4988069;28;20704;-91
2023/09/04 05:23:24;;;;;;;10.68;6.32;;;;;;;;;;4985933;28;20185;-92
2023/09/04 05:26:29;;;;;;;9.25;5.35;;;;;;;;;;4992328;28;20190;-91
2023/09/04 05:29:36;;;;;;;11.20;6.10;;;;;;;;;;4986862;28;20194;-89
2023/09/04 05:32:41;;;;;;;13.50;7.10;;;;;;;;;;4994012;28;20189;-91
2023/09/04 05:35:46;;;;;;;12.10;6.28;;;;;;;;;;4989306;28;20204;-93
2023/09/04 05:38:52;;;;;;;12.27;7.25;;;;;;;;;;4991768;28;20220;-91
2023/09/04 05:41:57;;;;;;;15.05;7.75;;;;;;;;;;4991111;28;20285;-92
2023/09/04 05:45:04;;;;;;;14.55;8.20;;;;;;;;;;5007660;28;20245;-92
2023/09/04 05:48:09;;;;;;;13.70;7.93;;;;;;;;;;5010078;28;20229;-90
2023/09/04 05:51:14;;;;;;;16.77;9.07;;;;;;;;;;5007723;28;20185;-90
2023/09/04 05:54:19;;;;;;;15.23;8.25;;;;;;;;;;4991230;28;20265;-91
2023/09/04 05:57:25;;;;;;;17.27;8.77;;;;;;;;;;4990019;28;20190;-90
2023/09/04 06:00:32;;;;;;;11.90;7.57;;;;;;;;;;4989949;28;20241;-89
2023/09/04 06:03:38;;;;;;;11.55;7.00;;;;;;;;;;4983380;28;20209;-89
2023/09/04 06:06:51;;;;;;;10.65;6.65;;;;;;;;;;4994935;28;20229;-91
2023/09/04 06:09:57;;;;;;;9.25;6.32;;;;;;;;;;4995180;28;20680;-93
2023/09/04 06:13:04;;;;;;;9.15;5.90;;;;;;;;;;4991414;28;20214;-91
2023/09/04 06:16:14;;;;;;;11.32;5.55;;;;;;;;;;4975290;28;20174;-92
2023/09/04 06:19:21;;;;;;;9.40;6.60;;;;;;;;;;4987833;28;20233;-89
2023/09/04 06:22:31;;;;;;;10.20;6.78;;;;;;;;;;5012338;28;20254;-89
2023/09/04 06:25:39;;;;;;;13.48;6.53;;;;;;;;;;5001090;28;20202;-90
2023/09/04 06:28:45;;;;;;;10.48;6.80;;;;;;;;;;4994507;28;20198;-89
2023/09/04 06:31:52;;;;;;;9.40;6.45;;;;;;;;;;5102543;23;20269;-89
2023/09/04 06:34:57;;;;;;;9.10;5.75;;;;;;;;;;4993464;28;20218;-92
2023/09/04 06:38:03;;;;;;;9.73;5.63;;;;;;;;;;4993699;28;20182;-91
2023/09/04 06:41:09;;;;;;;9.07;6.13;;;;;;;;;;4992949;28;20238;-90
2023/09/04 06:47:39;;;;;;;10.27;5.88;;;;;;;;;;4993213;28;20221;-87
2023/09/04 06:50:46;;;;;;;7.32;5.07;;;;;;;;;;4993246;28;20270;-90
2023/09/04 07:00:29;;;;;;;8.95;4.30;;;;;;;;;;4972373;28;20214;-90
2023/09/04 07:03:50;;;;;;;10.27;4.45;;;;;;;;;;4972462;28;20282;-93
2023/09/04 07:06:59;;;;;;;8.73;4.70;;;;;;;;;;4972416;28;20211;-89
2023/09/04 07:13:28;;;;;;;10.50;4.53;;;;;;;;;;4972444;28;20266;-90
2023/09/04 07:16:37;;;;;;;8.43;3.67;;;;;;;;;;4967914;28;20232;-93
2023/09/04 07:19:42;;;;;;;4.55;3.55;;;;;;;;;;4966955;28;20226;-89
2023/09/04 07:22:49;;;;;;;5.70;3.53;;;;;;;;;;4969276;28;20199;-91
2023/09/04 07:25:56;;;;;;;6.13;3.42;;;;;;;;;;4967869;28;20210;-91
2023/09/04 07:29:02;;;;;;;5.05;3.53;;;;;;;;;;4967096;28;20194;-91
2023/09/04 07:32:07;;;;;;;8.30;3.55;;;;;;;;;;4971727;28;20195;-91
2023/09/04 07:35:12;;;;;;;5.90;3.33;;;;;;;;;;4969327;28;20214;-90
2023/09/04 07:38:19;;;;;;;4.65;3.20;;;;;;;;;;4968957;28;20241;-90
2023/09/04 07:41:25;;;;;;;7.63;3.85;;;;;;;;;;4969648;28;20249;-91
2023/09/04 07:44:31;;;;;;;5.43;3.17;;;;;;;;;;4968310;28;20190;-93
2023/09/04 07:47:36;;;;;;;3.67;2.63;;;;;;;;;;4968609;28;20195;-89
2023/09/04 07:50:42;;;;;;;4.10;2.60;;;;;;;;;;4968502;28;20743;-91
2023/09/04 07:53:49;;;;;;;4.18;2.80;;;;;;;;;;4965311;28;20582;-90
2023/09/04 07:56:56;;;;;;;4.97;2.80;;;;;;;;;;4966825;28;20198;-92
2023/09/04 08:00:02;;;;;;;3.88;2.83;;;;;;;;;;4967314;28;20222;-92
2023/09/04 08:03:18;;;;;;;5.18;2.97;;;;;;;;;;4973226;28;20276;-91
2023/09/04 08:09:45;;;;;;;4.20;2.60;;;;;;;;;;4971512;28;20213;-91
2023/09/04 08:12:51;;;;;;;3.40;2.58;;;;;;;;;;4972458;28;20193;-90
2023/09/04 08:15:56;;;;;;;3.03;2.40;;;;;;;;;;4971515;28;20222;-92
2023/09/04 08:19:05;;;;;;;6.68;2.80;;;;;;;;;;4971850;28;20198;-90
2023/09/04 08:22:11;;;;;;;4.60;3.00;;;;;;;;;;4973212;28;20194;-91
2023/09/04 08:25:23;;;;;;;4.03;2.58;;;;;;;;;;4969497;28;20273;-93
2023/09/04 08:28:28;;;;;;;5.10;3.13;;;;;;;;;;4969884;28;20209;-92
2023/09/04 08:31:34;;;;;;;4.70;2.50;;;;;;;;;;4970091;28;20245;-91
2023/09/04 08:34:41;;;;;;;4.40;2.40;;;;;;;;;;4970751;28;20190;-92
2023/09/04 08:37:50;;;;;;;3.97;2.50;;;;;;;;;;4971540;28;20272;-93
2023/09/04 08:40:57;;;;;;;3.85;2.90;;;;;;;;;;4971596;28;20287;-90
2023/09/04 08:44:05;;;;;;;7.00;2.85;;;;;;;;;;4973925;28;20205;-92
2023/09/04 08:47:11;;;;;;;4.47;2.78;;;;;;;;;;4974490;28;20181;-92
2023/09/04 08:50:16;;;;;;;3.08;2.35;;;;;;;;;;4968014;28;20326;-90
2023/09/04 08:53:22;;;;;;;4.53;2.38;;;;;;;;;;4967491;28;20212;-90
2023/09/04 08:56:30;;;;;;;4.05;2.30;;;;;;;;;;4966072;28;20182;-90
2023/09/04 08:59:35;;;;;;;2.85;2.20;;;;;;;;;;4966015;28;20257;-91
2023/09/04 09:02:41;;;;;;;7.05;2.53;;;;;;;;;;4970637;28;20190;-90
2023/09/04 09:05:48;;;;;;;3.92;2.70;;;;;;;;;;4967029;29;20189;-91
2023/09/04 09:08:54;;;;;;;4.70;2.50;;;;;;;;;;4970060;28;20194;-91
2023/09/04 09:12:00;;;;;;;3.88;2.42;;;;;;;;;;4970737;28;20330;-91
2023/09/04 09:15:06;;;;;;;5.35;2.22;;;;;;;;;;4968500;28;20181;-92
2023/09/04 09:18:13;;;;;;;4.25;2.20;;;;;;;;;;4966604;28;20206;-92
2023/09/04 09:21:30;;;;;;;4.90;2.20;;;;;;;;;;4965277;28;20237;-94
2023/09/04 09:24:36;;;;;;;2.58;2.00;;;;;;;;;;4968111;28;20182;-91
2023/09/04 09:27:45;;;;;;;3.45;2.10;;;;;;;;;;4972310;28;20190;-91
2023/09/04 09:30:51;;;;;;;3.70;1.90;;;;;;;;;;4970335;28;20190;-92
2023/09/04 09:33:57;;;;;;;2.55;1.70;;;;;;;;;;4970214;28;20182;-90
2023/09/04 09:37:03;;;;;;;2.47;1.52;;;;;;;;;;4970717;28;20572;-92
2023/09/04 09:40:09;;;;;;;2.13;1.70;;;;;;;;;;4971015;28;20213;-90
2023/09/04 09:43:17;;;;;;;2.67;1.80;;;;;;;;;;4970382;28;20210;-94
2023/09/04 09:46:22;;;;;;;3.53;1.80;;;;;;;;;;4971445;28;20321;-92
2023/09/04 09:49:31;;;;;;;2.35;1.65;;;;;;;;;;4969944;28;20185;-91
2023/09/04 09:52:37;;;;;;;4.03;1.60;;;;;;;;;;4970148;28;20243;-92
2023/09/04 09:55:42;;;;;;;3.15;1.65;;;;;;;;;;4969945;28;20193;-92
2023/09/04 09:58:51;;;;;;;2.13;1.52;;;;;;;;;;4971024;28;20198;-92
2023/09/04 10:01:56;;;;;;;2.40;1.73;;;;;;;;;;4970358;28;20205;-93
2023/09/04 10:05:02;;;;;;;1.98;1.50;;;;;;;;;;4970051;28;20186;-92
2023/09/04 10:08:08;;;;;;;5.10;1.77;;;;;;;;;;4969802;28;20194;-91
2023/09/04 10:11:15;;;;;;;2.13;1.63;;;;;;;;;;4970502;28;20213;-92
2023/09/04 10:14:29;;;;;;;3.00;2.03;;;;;;;;;;4969395;28;20234;-91
2023/09/04 10:17:36;;;;;;;2.33;1.75;;;;;;;;;;4971790;28;20205;-92
2023/09/04 10:20:42;;;;;;;4.65;1.80;;;;;;;;;;4972071;28;20209;-91
2023/09/04 10:23:51;;;;;;;2.40;1.70;;;;;;;;;;4972654;28;20189;-91
2023/09/04 10:26:59;;;;;;;17.67;5.35;;;;;;;;;;4971738;28;20194;-93
2023/09/04 10:30:07;;;;;;;3.65;1.50;;;;;;;;;;4973481;28;20190;-92
2023/09/04 10:33:15;;;;;;;1.92;1.58;;;;;;;;;;4974288;28;20310;-90
2023/09/04 10:36:21;;;;;;;2.28;1.60;;;;;;;;;;4974826;28;20205;-91
2023/09/04 10:39:28;;;;;;;3.15;1.83;;;;;;;;;;4970292;28;20201;-92
2023/09/04 10:42:44;;;;;;;3.38;1.70;;;;;;;;;;4968245;29;20193;-92
2023/09/04 10:46:07;;;;;;;3.10;1.58;;;;;;;;;;4967601;28;20187;-92
2023/09/04 10:49:12;;;;;;;2.13;1.73;;;;;;;;;;4967390;28;20190;-90
2023/09/04 10:52:18;;;;;;;4.78;2.10;;;;;;;;;;4969576;28;20201;-92
2023/09/04 10:55:24;;;;;;;4.40;1.70;;;;;;;;;;4978772;28;20843;-90
2023/09/04 10:58:49;;;;;;;2.83;1.67;;;;;;;;;;4969057;28;20217;-90
2023/09/04 11:01:58;;;;;;;1.50;1.35;;;;;;;;;;4980821;28;20248;-92
2023/09/04 11:05:28;;;;;;;2.22;1.55;;;;;;;;;;4968126;28;20216;-91
2023/09/04 11:09:02;;;;;;;2.22;1.67;;;;;;;;;;4949062;28;20183;-92
2023/09/04 11:12:11;;;;;;;3.67;1.58;;;;;;;;;;4947014;28;20665;-94
2023/09/04 11:15:17;;;;;;;1.65;1.48;;;;;;;;;;4947223;28;20179;-92
2023/09/04 11:18:23;;;;;;;1.80;1.40;;;;;;;;;;4960466;28;20216;-93
2023/09/04 11:21:32;;;;;;;2.25;1.45;;;;;;;;;;4968010;28;20221;-91
2023/09/04 11:24:37;;;;;;;4.97;1.90;;;;;;;;;;4968842;28;20286;-92
2023/09/04 11:27:44;;;;;;;3.00;1.50;;;;;;;;;;4970345;28;20201;-92
2023/09/04 11:30:49;;;;;;;2.50;1.60;;;;;;;;;;4968249;28;20208;-92
2023/09/04 11:33:57;;;;;;;3.22;1.80;;;;;;;;;;4971797;28;20231;-92
2023/09/04 11:37:01;;;;;;;2.10;1.27;;;;;;;;;;4969852;28;20256;-92
2023/09/04 11:40:08;;;;;;;2.85;1.50;;;;;;;;;;4971448;28;20712;-90
2023/09/04 11:43:14;;;;;;;2.33;1.40;;;;;;;;;;4990654;28;20216;-91
2023/09/04 11:46:20;;;;;;;3.13;1.60;;;;;;;;;;4969805;28;20318;-91
2023/09/04 11:52:45;;;;;;;1.67;1.30;;;;;;;;;;4971833;28;20209;-90
2023/09/04 11:55:52;;;;;;;5.15;1.40;;;;;;;;;;4969426;28;20189;-91
2023/09/04 11:58:57;;;;;;;3.30;1.40;;;;;;;;;;4970202;28;20193;-90
2023/09/04 12:02:04;;;;;;;3.85;1.70;;;;;;;;;;4976581;28;20245;-91
2023/09/04 12:05:11;;;;;;;3.17;1.67;;;;;;;;;;4969030;28;20189;-92
2023/09/04 12:08:16;;;;;;;2.72;1.42;;;;;;;;;;4978573;28;20348;-92
2023/09/04 12:11:23;;;;;;;3.78;1.58;;;;;;;;;;4967246;28;20715;-90
2023/09/04 12:14:28;;;;;;;2.97;1.60;;;;;;;;;;4967854;28;20181;-93
2023/09/04 12:17:34;;;;;;;2.00;1.30;;;;;;;;;;4971450;28;20174;-89
2023/09/04 12:20:46;;;;;;;4.80;1.45;;;;;;;;;;4972914;28;20221;-92
2023/09/04 12:23:54;;;;;;;1.88;1.40;;;;;;;;;;4973682;28;20554;-92
2023/09/04 12:26:59;;;;;;;2.30;1.40;;;;;;;;;;4971747;28;20193;-90
2023/09/04 12:30:09;;;;;;;2.13;1.52;;;;;;;;;;4969614;28;20314;-89
2023/09/04 12:33:16;;;;;;;2.42;1.55;;;;;;;;;;4965109;29;20201;-89
2023/09/04 12:36:23;;;;;;;5.68;2.22;;;;;;;;;;4967305;28;20221;-90
2023/09/04 12:39:28;;;;;;;2.30;1.50;;;;;;;;;;4968726;28;20214;-93
2023/09/04 12:42:34;;;;;;;3.92;1.73;;;;;;;;;;4975655;28;20258;-91
2023/09/04 12:45:39;;;;;;;2.75;1.60;;;;;;;;;;4969932;28;20213;-92
2023/09/04 12:48:45;;;;;;;4.57;2.20;;;;;;;;;;4959044;28;20205;-91
2023/09/04 12:51:56;;;;;;;8.77;2.83;;;;;;;;;;4970710;28;20226;-92
2023/09/04 12:55:02;;;;;;;19.05;5.53;;;;;;;;;;4951059;28;20247;-91
2023/09/04 12:58:08;;;;;;;6.80;3.13;;;;;;;;;;4981097;28;20237;-90
2023/09/04 13:01:16;;;;;;;1.60;1.30;;;;;;;;;;4967123;28;20226;-91
2023/09/04 13:04:21;;;;;;;2.80;1.50;;;;;;;;;;4947427;29;20191;-89
2023/09/04 13:07:27;;;;;;;2.92;2.22;;;;;;;;;;4947104;28;20190;-90
2023/09/04 13:10:32;;;;;;;2.22;1.48;;;;;;;;;;4965827;28;20228;-90
2023/09/04 13:13:41;;;;;;;2.88;1.90;;;;;;;;;;4959721;28;20226;-90
2023/09/04 13:16:46;;;;;;;3.22;1.60;;;;;;;;;;4949887;28;20226;-91
2023/09/04 13:19:53;;;;;;;5.28;2.05;;;;;;;;;;4972092;28;20622;-90
2023/09/04 13:26:19;;;;;;;3.97;1.65;;;;;;;;;;4971368;28;20345;-89
2023/09/04 13:29:25;;;;;;;4.20;2.60;;;;;;;;;;4952930;28;20198;-90
2023/09/04 13:32:30;;;;;;;3.75;1.80;;;;;;;;;;4962403;28;20323;-90
2023/09/04 13:35:35;;;;;;;3.70;1.58;;;;;;;;;;4949629;28;20194;-91
2023/09/04 13:38:41;;;;;;;2.70;1.80;;;;;;;;;;4962224;28;20239;-91
2023/09/04 16:31:41;;;;;;;5.88;1.90;;;;;;;;;;5699263;23;20222;-89
2023/09/04 16:34:48;;;;;;;5.78;1.73;;;;;;;;;;4966695;28;20190;-90
2023/09/04 16:37:55;;;;;;;5.65;1.98;;;;;;;;;;4976668;28;20221;-89
2023/09/04 16:41:00;;;;;;;14.63;2.28;;;;;;;;;;4966283;28;20226;-91
2023/09/04 16:44:05;;;;;;;3.60;1.88;;;;;;;;;;4976604;28;20262;-87
2023/09/04 16:47:12;;;;;;;4.97;1.73;;;;;;;;;;4977397;28;20195;-87
2023/09/04 16:50:19;;;;;;;10.00;4.80;;;;;;;;;;4978062;28;20194;-90
2023/09/04 16:53:24;;;;;;;5.70;3.90;;;;;;;;;;4978680;28;20630;-92
2023/09/04 16:56:30;;;;;;;2.88;1.85;;;;;;;;;;4966038;28;20202;-90
2023/09/04 16:59:36;;;;;;;4.70;1.85;;;;;;;;;;4975951;28;20183;-86
2023/09/04 17:02:43;;;;;;;5.47;1.80;;;;;;;;;;4978001;28;20222;-90
2023/09/04 17:05:49;;;;;;;4.47;1.75;;;;;;;;;;4978285;28;20737;-90
2023/09/04 17:08:54;;;;;;;8.07;2.00;;;;;;;;;;4977377;28;20190;-91
2023/09/04 17:12:00;;;;;;;10.57;2.60;;;;;;;;;;4967441;28;20178;-89
2023/09/04 17:15:05;;;;;;;4.68;2.38;;;;;;;;;;4977637;28;20193;-87
2023/09/04 17:18:12;;;;;;;5.45;1.80;;;;;;;;;;4977024;28;20230;-91
2023/09/04 17:21:18;;;;;;;5.38;1.95;;;;;;;;;;4977951;28;20225;-90
2023/09/04 17:24:23;;;;;;;5.05;2.45;;;;;;;;;;4978605;28;20202;-89
2023/09/04 17:27:28;;;;;;;4.07;2.15;;;;;;;;;;4976677;28;20237;-91
2023/09/04 17:30:34;;;;;;;5.53;2.00;;;;;;;;;;4976613;28;20252;-90
2023/09/04 17:33:42;;;;;;;6.90;2.55;;;;;;;;;;4976764;28;20206;-92
2023/09/04 17:36:47;;;;;;;8.25;2.55;;;;;;;;;;4976596;28;20202;-88
2023/09/04 17:39:52;;;;;;;5.75;2.88;;;;;;;;;;4976069;28;20247;-89
2023/09/04 17:42:57;;;;;;;9.60;3.72;;;;;;;;;;4975116;28;20234;-89
2023/09/04 17:46:02;;;;;;;7.05;3.20;;;;;;;;;;4976308;28;20267;-89
2023/09/04 17:49:08;;;;;;;10.45;3.85;;;;;;;;;;4979073;28;20201;-88
2023/09/04 17:52:14;;;;;;;7.80;3.67;;;;;;;;;;4977387;28;20222;-89
2023/09/04 17:55:19;;;;;;;9.02;2.88;;;;;;;;;;4979458;28;20186;-91
2023/09/04 17:58:26;;;;;;;8.52;3.67;;;;;;;;;;4967366;29;20191;-88
2023/09/04 18:01:32;;;;;;;8.52;3.55;;;;;;;;;;4977520;28;20283;-89
2023/09/04 18:04:47;;;;;;;9.48;3.67;;;;;;;;;;4967861;28;20743;-89
2023/09/04 18:07:52;;;;;;;7.32;3.53;;;;;;;;;;4976474;28;20678;-89
2023/09/04 18:11:02;;;;;;;9.50;3.78;;;;;;;;;;4979165;28;20194;-88
2023/09/04 18:14:07;;;;;;;5.50;3.00;;;;;;;;;;4974969;28;20210;-88
2023/09/04 18:17:12;;;;;;;7.93;3.45;;;;;;;;;;4976370;28;20198;-90
2023/09/04 18:20:19;;;;;;;13.93;3.22;;;;;;;;;;4976583;28;20194;-93
2023/09/04 18:23:31;;;;;;;8.18;2.90;;;;;;;;;;4983936;28;20199;-92
2023/09/04 18:26:47;;;;;;;4.82;3.00;;;;;;;;;;4967411;28;20191;-88
2023/09/04 18:29:52;;;;;;;6.00;3.03;;;;;;;;;;4966987;28;20175;-89
2023/09/04 18:33:00;;;;;;;6.13;3.10;;;;;;;;;;4968957;28;20214;-90
2023/09/04 18:36:09;;;;;;;8.70;3.20;;;;;;;;;;4970528;28;20278;-89
2023/09/04 18:39:15;;;;;;;5.25;2.83;;;;;;;;;;4968998;28;20575;-91
2023/09/04 18:42:21;;;;;;;7.55;3.15;;;;;;;;;;4978636;28;20230;-88
2023/09/04 18:45:26;;;;;;;7.30;2.92;;;;;;;;;;4978855;28;20182;-89
2023/09/04 18:48:36;;;;;;;5.30;2.85;;;;;;;;;;4987472;28;20191;-90
2023/09/04 18:51:46;;;;;;;5.78;2.83;;;;;;;;;;4969904;28;20560;-88
2023/09/04 18:54:51;;;;;;;5.82;3.03;;;;;;;;;;4979225;28;20268;-89
2023/09/04 18:57:56;;;;;;;9.20;3.30;;;;;;;;;;4979124;28;20194;-89
2023/09/04 19:01:02;;;;;;;5.18;3.30;;;;;;;;;;4967846;28;20190;-88
2023/09/04 19:04:07;;;;;;;6.40;3.95;;;;;;;;;;4978505;28;20609;-91
2023/09/04 19:07:14;;;;;;;8.13;3.80;;;;;;;;;;4983656;28;20682;-89
2023/09/04 19:10:20;;;;;;;7.20;3.45;;;;;;;;;;4979435;28;20198;-87
2023/09/04 19:13:25;;;;;;;10.93;5.38;;;;;;;;;;4980404;28;20193;-86
2023/09/04 19:16:30;;;;;;;12.40;5.20;;;;;;;;;;4971516;28;20195;-89
2023/09/04 19:19:35;;;;;;;7.30;3.92;;;;;;;;;;4978431;28;20198;-89
2023/09/04 19:22:42;;;;;;;7.32;4.10;;;;;;;;;;4979430;28;20210;-88
2023/09/04 19:25:47;;;;;;;6.13;3.55;;;;;;;;;;4978521;28;20210;-89
2023/09/04 19:28:52;;;;;;;7.15;4.07;;;;;;;;;;4977486;28;20187;-90
2023/09/04 19:31:57;;;;;;;8.48;3.65;;;;;;;;;;4977232;28;20214;-91
2023/09/04 19:35:02;;;;;;;7.93;3.80;;;;;;;;;;4977605;28;20187;-90
2023/09/04 19:38:09;;;;;;;6.47;3.35;;;;;;;;;;4977256;28;20190;-88
2023/09/04 19:41:14;;;;;;;9.48;4.10;;;;;;;;;;4976831;28;20202;-92
2023/09/04 19:44:30;;;;;;;6.57;3.42;;;;;;;;;;4981625;28;20191;-87
2023/09/04 19:47:36;;;;;;;8.82;4.13;;;;;;;;;;4965820;28;20186;-89
2023/09/04 19:50:41;;;;;;;8.82;3.55;;;;;;;;;;4977645;28;20182;-90
2023/09/04 19:53:48;;;;;;;9.18;3.30;;;;;;;;;;4978099;28;20211;-88
2023/09/04 19:56:53;;;;;;;6.22;3.10;;;;;;;;;;4977314;28;20190;-90
2023/09/04 20:00:00;;;;;;;7.03;3.83;;;;;;;;;;4978004;28;20214;-90
2023/09/04 20:03:05;;;;;;;5.88;3.53;;;;;;;;;;4977536;28;20238;-89
2023/09/04 20:06:11;;;;;;;7.65;4.00;;;;;;;;;;4977312;28;20330;-86
2023/09/04 20:09:17;;;;;;;7.05;3.72;;;;;;;;;;4978857;28;20299;-89
2023/09/04 20:12:22;;;;;;;8.18;3.50;;;;;;;;;;4983061;28;20277;-90
2023/09/04 20:15:27;;;;;;;5.55;3.17;;;;;;;;;;4969652;28;20175;-88
2023/09/04 20:18:32;;;;;;;6.70;3.38;;;;;;;;;;4971885;28;20670;-91
2023/09/04 20:21:40;;;;;;;7.82;4.07;;;;;;;;;;4990169;28;20263;-92
2023/09/04 20:24:47;;;;;;;9.65;3.60;;;;;;;;;;4992589;28;20217;-91
2023/09/04 20:27:53;;;;;;;7.05;3.42;;;;;;;;;;4989725;28;20273;-90
2023/09/04 20:30:58;;;;;;;7.70;3.53;;;;;;;;;;4990579;28;20197;-92
2023/09/04 20:34:04;;;;;;;10.98;3.50;;;;;;;;;;4990597;28;20213;-91
2023/09/04 20:37:10;;;;;;;5.88;3.20;;;;;;;;;;4989791;28;20217;-91
2023/09/04 20:40:17;;;;;;;8.23;3.40;;;;;;;;;;5009619;28;20177;-91
2023/09/04 20:43:22;;;;;;;6.72;3.30;;;;;;;;;;5001701;28;20298;-92
2023/09/04 20:46:29;;;;;;;7.78;3.30;;;;;;;;;;4992999;28;20190;-89
2023/09/04 20:49:39;;;;;;;7.18;3.15;;;;;;;;;;4993034;28;20194;-90
2023/09/04 20:52:46;;;;;;;7.50;2.78;;;;;;;;;;4993326;28;20190;-91
2023/09/04 20:55:53;;;;;;;7.07;2.97;;;;;;;;;;4993461;28;20178;-92
2023/09/04 20:58:58;;;;;;;7.00;3.00;;;;;;;;;;4993456;28;20182;-90
2023/09/04 21:02:03;;;;;;;5.65;2.97;;;;;;;;;;4991401;28;20213;-91
2023/09/04 21:05:09;;;;;;;8.13;3.08;;;;;;;;;;5011109;28;20209;-90
2023/09/04 23:24:11;;;;;;;9.40;3.80;;;;;;;;;;4987234;28;20213;-93
2023/09/04 23:27:16;;;;;;;7.80;3.83;;;;;;;;;;4988615;28;20189;-91
2023/09/04 23:30:24;;;;;;;7.10;4.15;;;;;;;;;;4988037;28;20190;-91
2023/09/04 23:33:45;;;;;;;8.23;4.03;;;;;;;;;;4989106;28;20182;-90
2023/09/04 23:36:54;;;;;;;7.72;3.45;;;;;;;;;;4988964;28;20198;-92
2023/09/04 23:46:47;;;;;;;6.40;3.40;;;;;;;;;;4989219;28;20218;-92
2023/09/04 23:49:52;;;;;;;5.30;3.10;;;;;;;;;;4988749;28;20206;-90
2023/09/04 23:52:57;;;;;;;9.68;3.33;;;;;;;;;;4988158;28;20660;-90
2023/09/04 23:56:05;;;;;;;8.75;3.38;;;;;;;;;;4988627;28;20270;-88
2023/09/04 23:59:10;;;;;;;8.65;3.15;;;;;;;;;;4987726;28;20181;-93
